createdAt,value
2018-02-20T00:00:24.404Z,24.17
2018-02-20T00:02:52.882Z,23.00
2018-02-20T00:05:21.308Z,25.03
2018-02-20T00:07:49.721Z,26.50
2018-02-20T00:10:18.182Z,25.87
2018-02-20T00:12:46.612Z,26.00
2018-02-20T00:15:15.033Z,24.77
2018-02-20T00:17:43.499Z,25.40
2018-02-20T00:20:11.919Z,25.90
2018-02-20T00:22:40.344Z,24.97
2018-02-20T00:25:08.827Z,24.80
2018-02-20T00:27:37.263Z,24.17
2018-02-20T00:30:05.687Z,25.30
2018-02-20T00:32:34.152Z,24.83
2018-02-20T00:35:02.562Z,26.33
2018-02-20T00:37:30.995Z,25.53
2018-02-20T00:39:59.464Z,26.67
2018-02-20T00:42:27.902Z,25.53
2018-02-20T00:44:56.341Z,26.43
2018-02-20T00:47:24.827Z,25.43
2018-02-20T00:49:53.256Z,24.40
2018-02-20T00:52:21.685Z,26.23
2018-02-20T00:54:50.146Z,25.07
2018-02-20T00:57:18.570Z,26.27
2018-02-20T00:59:46.992Z,25.70
2018-02-20T01:02:15.454Z,25.00
2018-02-20T01:04:43.874Z,25.83
2018-02-20T01:07:12.294Z,26.40
2018-02-20T01:09:40.756Z,25.43
2018-02-20T01:12:09.174Z,25.43
2018-02-20T01:14:37.601Z,25.83
2018-02-20T01:17:06.096Z,24.50
2018-02-20T01:19:34.531Z,25.17
2018-02-20T01:22:02.950Z,23.70
2018-02-20T01:24:31.428Z,26.30
2018-02-20T01:26:59.860Z,25.33
2018-02-20T01:29:28.289Z,24.30
2018-02-20T01:31:56.760Z,26.70
2018-02-20T01:34:25.181Z,26.60
2018-02-20T01:36:53.602Z,27.93
2018-02-20T01:39:22.062Z,29.20
2018-02-20T01:41:50.492Z,27.53
2018-02-20T01:44:18.928Z,29.20
2018-02-20T01:46:47.407Z,26.87
2018-02-20T01:49:15.818Z,26.50
2018-02-20T01:51:44.259Z,26.43
2018-02-20T01:54:12.711Z,25.80
2018-02-20T01:56:41.130Z,27.57
2018-02-20T01:59:09.547Z,26.43
2018-02-20T02:01:37.997Z,24.43
2018-02-20T02:04:06.428Z,26.53
2018-02-20T02:06:34.851Z,26.50
2018-02-20T02:09:03.349Z,26.77
2018-02-20T02:11:31.787Z,26.00
2018-02-20T02:14:00.204Z,26.27
2018-02-20T02:16:28.672Z,27.53
2018-02-20T02:18:57.104Z,26.10
2018-02-20T02:21:25.548Z,26.33
2018-02-20T02:23:54.023Z,27.00
2018-02-20T02:26:22.441Z,27.73
2018-02-20T02:28:50.868Z,28.83
2018-02-20T02:31:19.329Z,25.03
2018-02-20T02:33:47.757Z,28.67
2018-02-20T02:36:16.195Z,29.00
2018-02-20T02:38:44.668Z,26.93
2018-02-20T02:41:13.100Z,29.17
2018-02-20T02:43:41.570Z,28.73
2018-02-20T02:46:10.045Z,28.63
2018-02-20T02:48:38.470Z,30.67
2018-02-20T02:51:06.905Z,29.37
2018-02-20T02:53:35.388Z,28.20
2018-02-20T02:56:03.833Z,28.53
2018-02-20T02:58:32.254Z,29.37
2018-02-20T03:01:00.730Z,28.13
2018-02-20T03:03:29.157Z,28.20
2018-02-20T03:05:57.601Z,28.67
2018-02-20T03:08:26.073Z,28.83
2018-02-20T03:10:54.499Z,31.60
2018-02-20T03:13:22.944Z,28.07
2018-02-20T03:15:51.414Z,29.73
2018-02-20T03:18:19.843Z,29.60
2018-02-20T03:20:48.279Z,32.00
2018-02-20T03:23:16.746Z,32.27
2018-02-20T03:25:45.180Z,31.07
2018-02-20T03:28:13.623Z,28.97
2018-02-20T03:30:42.091Z,31.90
2018-02-20T03:33:10.524Z,30.50
2018-02-20T03:35:38.964Z,30.87
2018-02-20T03:38:07.438Z,30.10
2018-02-20T03:40:35.873Z,31.17
2018-02-20T03:43:04.299Z,27.50
2018-02-20T03:45:32.771Z,30.67
2018-02-20T03:48:01.193Z,28.43
2018-02-20T03:50:29.624Z,29.10
2018-02-20T03:52:58.102Z,29.17
2018-02-20T03:55:26.536Z,30.10
2018-02-20T03:57:54.968Z,27.20
2018-02-20T04:00:23.447Z,28.70
2018-02-20T04:02:51.897Z,29.57
2018-02-20T04:05:20.336Z,30.73
2018-02-20T04:07:48.817Z,29.27
2018-02-20T04:10:17.238Z,28.43
2018-02-20T04:12:45.672Z,29.90
2018-02-20T04:15:14.143Z,28.40
2018-02-20T04:17:42.568Z,26.60
2018-02-20T04:20:10.989Z,29.20
2018-02-20T04:22:39.471Z,29.63
2018-02-20T04:25:07.904Z,28.03
2018-02-20T04:27:36.335Z,30.63
2018-02-20T04:30:04.802Z,31.07
2018-02-20T04:32:33.247Z,31.23
2018-02-20T04:35:01.684Z,29.60
2018-02-20T04:37:30.371Z,30.60
2018-02-20T04:39:58.805Z,33.27
2018-02-20T04:42:27.236Z,33.90
2018-02-20T04:44:55.712Z,31.40
2018-02-20T04:47:24.130Z,33.73
2018-02-20T04:49:52.564Z,34.80
2018-02-20T04:52:21.027Z,31.13
2018-02-20T04:54:49.461Z,31.13
2018-02-20T04:57:17.891Z,30.40
2018-02-20T04:59:46.383Z,31.53
2018-02-20T05:02:14.822Z,29.93
2018-02-20T05:04:43.260Z,30.43
2018-02-20T05:07:11.714Z,32.47
2018-02-20T05:09:40.147Z,30.83
2018-02-20T05:12:08.570Z,32.17
2018-02-20T05:14:37.281Z,30.90
2018-02-20T05:17:05.711Z,31.10
2018-02-20T05:19:34.129Z,32.37
2018-02-20T05:22:02.598Z,32.87
2018-02-20T05:24:31.026Z,33.20
2018-02-20T05:26:59.460Z,32.93
2018-02-20T05:29:27.917Z,32.07
2018-02-20T05:31:56.369Z,41.83
2018-02-20T05:34:24.789Z,40.10
2018-02-20T05:36:53.251Z,43.63
2018-02-20T05:39:21.678Z,30.63
2018-02-20T05:41:50.116Z,30.03
2018-02-20T05:44:18.613Z,31.10
2018-02-20T05:46:47.039Z,30.33
2018-02-20T05:49:15.474Z,30.40
2018-02-20T05:51:43.941Z,31.70
2018-02-20T05:54:12.363Z,34.70
2018-02-20T05:56:40.802Z,32.57
2018-02-20T05:59:09.261Z,34.10
2018-02-20T06:01:37.699Z,30.90
2018-02-20T06:04:06.152Z,32.73
2018-02-20T06:06:34.669Z,31.93
2018-02-20T06:09:03.136Z,31.53
2018-02-20T06:11:31.567Z,31.23
2018-02-20T06:14:00.026Z,32.87
2018-02-20T06:16:28.458Z,32.90
2018-02-20T06:18:56.888Z,30.57
2018-02-20T06:21:25.374Z,31.83
2018-02-20T06:23:53.795Z,32.40
2018-02-20T06:26:22.213Z,31.57
2018-02-20T06:28:50.674Z,31.87
2018-02-20T06:31:19.099Z,29.83
2018-02-20T06:33:47.513Z,31.73
2018-02-20T06:36:15.974Z,33.10
2018-02-20T06:38:44.408Z,32.27
2018-02-20T06:41:12.834Z,30.53
2018-02-20T06:43:41.293Z,30.47
2018-02-20T06:46:09.715Z,31.30
2018-02-20T06:48:38.144Z,31.63
2018-02-20T06:51:06.606Z,30.63
2018-02-20T06:53:35.021Z,31.57
2018-02-20T06:56:03.438Z,31.33
2018-02-20T06:58:31.906Z,32.27
2018-02-20T07:01:00.330Z,31.03
2018-02-20T07:03:28.750Z,29.13
2018-02-20T07:05:57.231Z,29.60
2018-02-20T07:08:25.676Z,30.57
2018-02-20T07:10:54.112Z,31.17
2018-02-20T07:13:22.588Z,29.57
2018-02-20T07:15:51.013Z,32.10
2018-02-20T07:18:19.430Z,30.30
2018-02-20T07:20:47.903Z,32.30
2018-02-20T07:23:16.340Z,32.77
2018-02-20T07:25:44.776Z,31.93
2018-02-20T07:28:13.259Z,31.93
2018-02-20T07:30:41.686Z,32.03
2018-02-20T07:33:10.110Z,31.57
2018-02-20T07:35:38.574Z,33.60
2018-02-20T07:38:07.003Z,30.40
2018-02-20T07:40:35.439Z,35.20
2018-02-20T07:43:03.902Z,35.57
2018-02-20T07:45:32.343Z,34.10
2018-02-20T07:48:00.773Z,33.80
2018-02-20T07:50:29.237Z,33.33
2018-02-20T07:52:57.667Z,31.27
2018-02-20T07:55:26.104Z,31.20
2018-02-20T07:57:54.577Z,31.43
2018-02-20T08:00:23.020Z,33.20
2018-02-20T08:02:51.481Z,33.43
2018-02-20T08:05:19.942Z,31.67
2018-02-20T08:07:48.365Z,32.47
2018-02-20T08:10:16.789Z,33.07
2018-02-20T08:12:45.266Z,30.40
2018-02-20T08:15:13.682Z,32.23
2018-02-20T08:17:42.116Z,32.50
2018-02-20T08:20:10.587Z,32.73
2018-02-20T08:22:39.015Z,32.07
2018-02-20T08:25:07.453Z,33.77
2018-02-20T08:27:35.934Z,32.87
2018-02-20T08:30:04.372Z,34.10
2018-02-20T08:32:32.809Z,33.87
2018-02-20T08:35:01.291Z,32.73
2018-02-20T08:37:29.720Z,32.17
2018-02-20T08:39:58.147Z,33.07
2018-02-20T08:42:26.613Z,34.63
2018-02-20T08:44:55.040Z,32.57
2018-02-20T08:47:23.454Z,34.60
2018-02-20T08:49:51.925Z,36.23
2018-02-20T08:52:20.369Z,32.17
2018-02-20T08:54:48.799Z,35.23
2018-02-20T08:57:17.274Z,36.03
2018-02-20T08:59:45.700Z,32.27
2018-02-20T09:02:14.126Z,34.80
2018-02-20T09:04:42.586Z,35.83
2018-02-20T09:07:11.041Z,32.07
2018-02-20T09:09:39.480Z,31.93
2018-02-20T09:12:07.967Z,33.53
2018-02-20T09:14:36.410Z,32.77
2018-02-20T09:17:04.834Z,33.23
2018-02-20T09:19:33.301Z,32.30
2018-02-20T09:22:01.745Z,32.60
2018-02-20T09:24:30.184Z,32.67
2018-02-20T09:26:58.665Z,31.70
2018-02-20T09:29:27.097Z,31.87
2018-02-20T09:31:55.527Z,31.67
2018-02-20T09:34:24.006Z,32.53
2018-02-20T09:36:52.442Z,32.33
2018-02-20T09:39:20.912Z,33.20
2018-02-20T09:41:49.396Z,32.13
2018-02-20T09:44:17.834Z,34.03
2018-02-20T09:46:46.283Z,31.27
2018-02-20T09:49:14.764Z,33.47
2018-02-20T09:51:43.201Z,34.23
2018-02-20T09:54:11.644Z,33.10
2018-02-20T09:56:40.128Z,34.00
2018-02-20T09:59:08.586Z,34.50
2018-02-20T10:01:37.022Z,32.17
2018-02-20T10:04:05.510Z,31.37
2018-02-20T10:06:33.947Z,31.77
2018-02-20T10:09:02.388Z,31.77
2018-02-20T10:11:30.881Z,30.77
2018-02-20T10:13:59.320Z,30.27
2018-02-20T10:16:27.741Z,31.50
2018-02-20T10:18:56.256Z,32.03
2018-02-20T10:21:24.717Z,31.17
2018-02-20T10:23:53.157Z,31.93
2018-02-20T10:26:21.623Z,30.23
2018-02-20T10:28:50.045Z,32.47
2018-02-20T10:31:18.470Z,32.93
2018-02-20T10:33:46.948Z,31.00
2018-02-20T10:36:15.368Z,31.57
2018-02-20T10:38:43.807Z,30.60
2018-02-20T10:41:12.304Z,30.90
2018-02-20T10:43:40.751Z,32.30
2018-02-20T10:46:09.188Z,32.00
2018-02-20T10:48:37.646Z,31.00
2018-02-20T10:51:06.088Z,31.00
2018-02-20T10:53:34.529Z,31.37
2018-02-20T10:56:03.065Z,31.23
2018-02-20T10:58:31.506Z,29.57
2018-02-20T11:00:59.952Z,30.47
2018-02-20T11:03:28.440Z,30.97
2018-02-20T11:05:57.172Z,30.57
2018-02-20T11:08:25.600Z,30.30
2018-02-20T11:10:54.116Z,31.47
2018-02-20T11:13:22.583Z,32.77
2018-02-20T11:15:51.014Z,32.00
2018-02-20T11:18:19.510Z,30.87
2018-02-20T11:20:47.968Z,31.40
2018-02-20T11:23:16.401Z,31.77
2018-02-20T11:25:44.874Z,32.13
2018-02-20T11:28:13.324Z,31.93
2018-02-20T11:30:41.787Z,31.97
2018-02-20T11:33:10.279Z,33.33
2018-02-20T11:35:38.709Z,32.90
2018-02-20T11:38:07.148Z,32.90
2018-02-20T11:40:35.616Z,31.97
2018-02-20T11:43:04.053Z,32.33
2018-02-20T11:45:32.493Z,31.97
2018-02-20T11:48:01.191Z,31.23
2018-02-20T11:50:29.640Z,32.10
2018-02-20T11:52:58.096Z,33.90
2018-02-20T11:55:26.570Z,34.00
2018-02-20T11:57:55.034Z,32.40
2018-02-20T12:00:23.470Z,32.77
2018-02-20T12:02:51.950Z,33.93
2018-02-20T12:05:20.379Z,35.10
2018-02-20T12:07:48.820Z,32.33
2018-02-20T12:10:17.318Z,33.83
2018-02-20T12:12:45.772Z,35.77
2018-02-20T12:15:14.208Z,33.30
2018-02-20T12:17:42.697Z,35.77
2018-02-20T12:20:11.152Z,35.87
2018-02-20T12:22:39.605Z,35.13
2018-02-20T12:25:08.093Z,35.97
2018-02-20T12:27:36.538Z,36.63
2018-02-20T12:30:04.979Z,37.00
2018-02-20T12:32:33.467Z,39.80
2018-02-20T12:35:01.913Z,38.73
2018-02-20T12:37:30.373Z,37.83
2018-02-20T12:39:58.873Z,40.33
2018-02-20T12:42:27.306Z,39.53
2018-02-20T12:44:55.768Z,39.10
2018-02-20T12:47:24.259Z,39.30
2018-02-20T12:49:52.706Z,40.73
2018-02-20T12:52:21.169Z,38.50
2018-02-20T12:54:49.637Z,39.83
2018-02-20T12:57:18.092Z,38.67
2018-02-20T12:59:46.528Z,38.23
2018-02-20T13:02:15.076Z,39.27
2018-02-20T13:04:43.487Z,41.23
2018-02-20T13:07:11.937Z,38.70
2018-02-20T13:09:40.415Z,43.20
2018-02-20T13:12:08.878Z,42.43
2018-02-20T13:14:37.346Z,40.43
2018-02-20T13:17:05.838Z,40.10
2018-02-20T13:19:34.281Z,41.17
2018-02-20T13:22:02.743Z,40.20
2018-02-20T13:24:31.244Z,40.47
2018-02-20T13:26:59.689Z,46.60
2018-02-20T13:29:28.139Z,44.23
2018-02-20T13:31:56.634Z,44.43
2018-02-20T13:34:25.067Z,44.20
2018-02-20T13:36:53.512Z,47.13
2018-02-20T13:39:22.000Z,44.10
2018-02-20T13:41:50.451Z,44.60
2018-02-20T13:44:18.881Z,46.17
2018-02-20T13:46:47.341Z,44.73
2018-02-20T13:49:15.780Z,43.60
2018-02-20T13:51:44.222Z,45.57
2018-02-20T13:54:12.705Z,46.67
2018-02-20T13:56:41.204Z,44.53
2018-02-20T13:59:09.651Z,44.63
2018-02-20T14:01:38.119Z,45.10
2018-02-20T14:04:06.561Z,44.97
2018-02-20T14:06:34.997Z,44.77
2018-02-20T14:09:03.549Z,45.67
2018-02-20T14:11:31.996Z,44.07
2018-02-20T14:14:00.432Z,41.83
2018-02-20T14:16:28.931Z,43.13
2018-02-20T14:18:57.363Z,44.80
2018-02-20T14:21:25.795Z,43.57
2018-02-20T14:23:54.254Z,43.57
2018-02-20T14:26:22.704Z,45.33
2018-02-20T14:28:51.156Z,44.80
2018-02-20T14:31:19.621Z,45.23
2018-02-20T14:33:48.072Z,44.83
2018-02-20T14:36:16.498Z,46.37
2018-02-20T14:38:44.987Z,43.33
2018-02-20T14:41:13.437Z,44.73
2018-02-20T14:43:41.872Z,46.30
2018-02-20T14:46:10.354Z,47.80
2018-02-20T14:48:38.821Z,45.33
2018-02-20T14:51:07.265Z,45.90
2018-02-20T14:53:35.748Z,49.00
2018-02-20T14:56:04.206Z,46.60
2018-02-20T14:58:32.650Z,46.50
2018-02-20T15:01:01.119Z,46.07
2018-02-20T15:03:29.571Z,46.17
2018-02-20T15:05:58.006Z,45.23
2018-02-20T15:08:26.527Z,45.73
2018-02-20T15:10:54.970Z,45.10
2018-02-20T15:13:23.406Z,47.00
2018-02-20T15:15:51.880Z,46.80
2018-02-20T15:18:20.343Z,46.17
2018-02-20T15:20:48.776Z,47.07
2018-02-20T15:23:17.250Z,46.57
2018-02-20T15:25:45.692Z,46.30
2018-02-20T15:28:14.151Z,47.33
2018-02-20T15:30:42.653Z,46.30
2018-02-20T15:33:11.078Z,46.33
2018-02-20T15:35:39.528Z,50.07
2018-02-20T15:38:08.013Z,51.43
2018-02-20T15:40:36.459Z,49.73
2018-02-20T15:43:04.912Z,49.70
2018-02-20T15:45:33.376Z,49.00
2018-02-20T15:48:01.812Z,46.93
2018-02-20T15:50:30.271Z,48.90
2018-02-20T15:52:58.792Z,48.00
2018-02-20T15:55:27.230Z,47.33
2018-02-20T15:57:55.651Z,48.87
2018-02-20T16:00:24.136Z,55.07
2018-02-20T16:02:52.578Z,50.97
2018-02-20T16:05:21.038Z,53.30
2018-02-20T16:07:49.514Z,52.73
2018-02-20T16:10:17.946Z,49.83
2018-02-20T16:12:46.363Z,50.57
2018-02-20T16:15:14.876Z,50.17
2018-02-20T16:17:43.309Z,50.03
2018-02-20T16:20:11.759Z,47.90
2018-02-20T16:22:40.277Z,49.07
2018-02-20T16:25:08.710Z,48.83
2018-02-20T16:27:37.177Z,48.90
2018-02-20T16:30:05.673Z,49.33
2018-02-20T16:32:34.123Z,52.07
2018-02-20T16:35:02.561Z,48.00
2018-02-20T16:37:31.060Z,50.50
2018-02-20T16:39:59.500Z,48.47
2018-02-20T16:42:27.951Z,50.77
2018-02-20T16:44:56.428Z,47.53
2018-02-20T16:47:24.865Z,51.03
2018-02-20T16:49:53.291Z,51.20
2018-02-20T16:52:21.765Z,49.73
2018-02-20T16:54:50.198Z,50.17
2018-02-20T16:57:18.636Z,50.53
2018-02-20T16:59:47.116Z,52.83
2018-02-20T17:02:15.565Z,51.17
2018-02-20T17:04:44.016Z,52.57
2018-02-20T17:07:12.529Z,52.43
2018-02-20T17:09:40.983Z,54.20
2018-02-20T17:12:09.482Z,53.17
2018-02-20T17:14:37.946Z,54.97
2018-02-20T17:17:06.369Z,53.17
2018-02-20T17:19:34.798Z,54.83
2018-02-20T17:22:03.268Z,55.17
2018-02-20T17:24:31.704Z,56.80
2018-02-20T17:27:00.136Z,55.33
2018-02-20T17:29:28.616Z,55.97
2018-02-20T17:31:57.048Z,54.67
2018-02-20T17:34:25.484Z,55.80
2018-02-20T17:36:53.960Z,56.37
2018-02-20T17:39:22.400Z,56.97
2018-02-20T17:41:50.845Z,59.93
2018-02-20T17:44:19.320Z,56.27
2018-02-20T17:46:47.784Z,57.70
2018-02-20T17:49:17.114Z,57.87
2018-02-20T17:51:45.617Z,56.70
2018-02-20T17:54:14.058Z,54.53
2018-02-20T17:56:42.485Z,54.20
2018-02-20T17:59:10.959Z,57.90
2018-02-20T18:01:39.407Z,56.43
2018-02-20T18:04:07.836Z,57.17
2018-02-20T18:06:36.297Z,55.47
2018-02-20T18:09:04.978Z,54.80
2018-02-20T18:11:33.406Z,55.57
2018-02-20T18:14:01.956Z,55.27
2018-02-20T18:16:30.584Z,53.90
2018-02-20T18:18:59.025Z,56.27
2018-02-20T18:21:27.492Z,55.73
2018-02-20T18:23:55.906Z,55.13
2018-02-20T18:26:24.344Z,53.83
2018-02-20T18:28:53.168Z,53.67
2018-02-20T18:31:21.598Z,56.33
2018-02-20T18:33:50.022Z,55.53
2018-02-20T18:36:18.496Z,54.83
2018-02-20T18:38:46.938Z,53.60
2018-02-20T18:41:15.392Z,56.70
2018-02-20T18:43:43.900Z,59.03
2018-02-20T18:46:12.335Z,55.57
2018-02-20T18:48:40.775Z,58.97
2018-02-20T18:51:09.254Z,60.37
2018-02-20T18:53:37.683Z,57.93
2018-02-20T18:56:06.124Z,54.47
2018-02-20T18:58:34.684Z,58.80
2018-02-20T19:01:03.118Z,58.90
2018-02-20T19:03:31.558Z,56.00
2018-02-20T19:06:00.056Z,55.40
2018-02-20T19:08:28.500Z,55.47
2018-02-20T19:10:56.938Z,54.90
2018-02-20T19:13:25.416Z,53.57
2018-02-20T19:15:53.845Z,53.93
2018-02-20T19:18:22.275Z,52.97
2018-02-20T19:20:51.704Z,55.77
2018-02-20T19:23:20.147Z,54.77
2018-02-20T19:25:48.585Z,55.93
2018-02-20T19:28:17.065Z,57.13
2018-02-20T19:30:45.518Z,56.97
2018-02-20T19:33:13.950Z,56.73
2018-02-20T19:35:42.427Z,54.13
2018-02-20T19:38:10.859Z,55.83
2018-02-20T19:40:39.326Z,56.77
2018-02-20T19:43:07.796Z,56.70
2018-02-20T19:45:36.231Z,57.33
2018-02-20T19:48:04.695Z,57.57
2018-02-20T19:50:33.177Z,58.70
2018-02-20T19:53:01.625Z,58.80
2018-02-20T19:55:30.078Z,56.50
2018-02-20T19:57:58.575Z,57.90
2018-02-20T20:00:27.037Z,59.77
2018-02-20T20:02:55.488Z,58.07
2018-02-20T20:05:23.978Z,58.73
2018-02-20T20:07:52.414Z,56.73
2018-02-20T20:10:20.842Z,59.73
2018-02-20T20:12:49.346Z,56.03
2018-02-20T20:15:17.786Z,60.07
2018-02-20T20:17:46.230Z,58.90
2018-02-20T20:20:14.904Z,57.43
2018-02-20T20:22:43.353Z,60.67
2018-02-20T20:25:11.811Z,59.73
2018-02-20T20:27:40.319Z,61.50
2018-02-20T20:30:08.767Z,61.13
2018-02-20T20:32:37.198Z,62.03
2018-02-20T20:35:05.667Z,63.67
2018-02-20T20:37:34.117Z,61.73
2018-02-20T20:40:02.558Z,59.80
2018-02-20T20:42:31.092Z,60.93
2018-02-20T20:44:59.541Z,62.23
2018-02-20T20:47:27.974Z,60.40
2018-02-20T20:49:56.459Z,63.20
2018-02-20T20:52:24.903Z,62.67
2018-02-20T20:54:53.338Z,63.57
2018-02-20T20:57:21.832Z,61.27
2018-02-20T20:59:50.279Z,63.03
2018-02-20T21:02:18.740Z,62.20
2018-02-20T21:04:47.232Z,60.63
2018-02-20T21:07:15.670Z,60.73
2018-02-20T21:09:44.120Z,62.30
2018-02-20T21:12:12.597Z,60.33
2018-02-20T21:14:41.055Z,62.00
2018-02-20T21:17:09.504Z,62.67
2018-02-20T21:19:38.022Z,62.90
2018-02-20T21:22:06.464Z,60.83
2018-02-20T21:24:34.920Z,60.20
2018-02-20T21:27:03.433Z,62.30
2018-02-20T21:29:31.871Z,61.60
2018-02-20T21:32:00.314Z,60.17
2018-02-20T21:34:28.788Z,62.13
2018-02-20T21:36:57.215Z,63.17
2018-02-20T21:39:25.638Z,62.10
2018-02-20T21:41:54.116Z,63.57
2018-02-20T21:44:22.553Z,61.73
2018-02-20T21:46:50.997Z,64.07
2018-02-20T21:49:19.477Z,62.97
2018-02-20T21:51:47.894Z,59.73
2018-02-20T21:54:16.320Z,59.03
2018-02-20T21:56:44.812Z,58.37
2018-02-20T21:59:13.299Z,60.60
2018-02-20T22:01:41.755Z,59.57
2018-02-20T22:04:10.240Z,60.60
2018-02-20T22:06:38.692Z,59.67
2018-02-20T22:09:07.144Z,58.60
2018-02-20T22:11:35.618Z,59.30
2018-02-20T22:14:04.071Z,61.47
2018-02-20T22:16:32.509Z,60.70
2018-02-20T22:19:00.985Z,58.97
2018-02-20T22:21:29.428Z,57.43
2018-02-20T22:23:57.873Z,57.67
2018-02-20T22:26:26.345Z,58.20
2018-02-20T22:28:54.792Z,58.53
2018-02-20T22:31:23.242Z,57.57
2018-02-20T22:33:51.741Z,60.43
2018-02-20T22:36:20.187Z,59.63
2018-02-20T22:38:48.606Z,59.93
2018-02-20T22:41:17.083Z,61.23
2018-02-20T22:43:45.528Z,59.20
2018-02-20T22:46:13.954Z,59.57
2018-02-20T22:48:42.512Z,57.77
2018-02-20T22:51:10.948Z,60.57
2018-02-20T22:53:39.365Z,57.27
2018-02-20T22:56:07.844Z,54.83
2018-02-20T22:58:36.270Z,54.60
2018-02-20T23:01:04.711Z,55.00
2018-02-20T23:03:33.165Z,53.80
2018-02-20T23:06:01.603Z,52.87
2018-02-20T23:08:30.032Z,50.43
2018-02-20T23:10:58.501Z,51.07
2018-02-20T23:13:26.927Z,51.83
2018-02-20T23:15:55.365Z,50.77
2018-02-20T23:18:24.804Z,49.07
2018-02-20T23:20:53.227Z,51.23
2018-02-20T23:23:21.647Z,45.40
2018-02-20T23:25:50.117Z,47.07
2018-02-20T23:28:18.556Z,47.30
2018-02-20T23:30:46.995Z,45.00
2018-02-20T23:33:15.461Z,45.07
2018-02-20T23:35:43.929Z,45.73
2018-02-20T23:38:12.345Z,44.50
2018-02-20T23:40:40.805Z,43.33
2018-02-20T23:43:09.235Z,44.03
2018-02-20T23:45:37.668Z,45.23
2018-02-20T23:48:06.146Z,45.00
2018-02-20T23:50:34.564Z,41.90
2018-02-20T23:53:02.987Z,43.40
2018-02-20T23:55:31.457Z,44.90
2018-02-20T23:57:59.888Z,43.97
